Time;durP1;ratioP1;P1;durP2;ratioP2;P2;SDS_P1;SDS_P2;PMS_P1;PMS_P2;Temp;Humidity;BMP_temperature;BMP_pressure;BME280_temperature;BME280_humidity;BME280_pressure;Samples;Min_cycle;Max_cycle;Signal;HPM_P1;HPM_P2
2022/08/11 00:07:33;;;;;;;;;;;;;;;;;;21164854;28;19927;-58
2022/08/11 00:17:35;;;;;;;;;;;;;;;;;;21164866;28;19928;-64
2022/08/11 00:27:36;;;;;;;;;;;;;;;;;;21156221;28;19963;-75
2022/08/11 00:37:38;;;;;;;;;;;;;;;;;;21163913;28;20237;-74
2022/08/11 00:47:40;;;;;;;;;;;;;;;;;;21163037;28;20032;-64
2022/08/11 00:57:42;;;;;;;;;;;;;;;;;;21163343;28;19923;-55
2022/08/11 01:07:43;;;;;;;;;;;;;;;;;;21179031;28;19924;-57
2022/08/11 01:17:45;;;;;;;;;;;;;;;;;;21182308;28;19931;-70
2022/08/11 01:27:48;;;;;;;;;;;;;;;;;;21177461;28;20010;-57
2022/08/11 01:37:52;;;;;;;;;;;;;;;;;;21177646;28;19969;-72
2022/08/11 01:47:55;;;;;;;;;;;;;;;;;;21177215;28;19928;-76
2022/08/11 01:58:01;;;;;;;;;;;;;;;;;;21178299;28;19924;-69
2022/08/11 02:08:07;;;;;;;;;;;;;;;;;;21176933;28;20275;-76
2022/08/11 02:18:11;;;;;;;;;;;;;;;;;;21181129;28;19929;-58
2022/08/11 02:28:17;;;;;;;;;;;;;;;;;;21179977;28;19924;-57
2022/08/11 02:38:25;;;;;;;;;;;;;;;;;;21181346;28;20194;-60
2022/08/11 03:09:18;;;;;;;;;;;;;;;;;;21169340;28;20364;-75
2022/08/11 03:19:22;;;;;;;;;;;;;;;;;;21169454;28;19924;-56
2022/08/11 03:29:25;;;;;;;;;;;;;;;;;;21167525;28;19928;-69
2022/08/11 03:39:27;;;;;;;;;;;;;;;;;;21169495;28;20383;-70
2022/08/11 03:49:29;;;;;;;;;;;;;;;;;;21210533;28;20039;-62
2022/08/11 03:59:31;;;;;;;;;;;;;;;;;;21171505;28;20397;-76
2022/08/11 04:09:34;;;;;;;;;;;;;;;;;;21165647;28;19924;-57
2022/08/11 04:19:36;;;;;;;;;;;;;;;;;;21193290;28;19923;-56
2022/08/11 04:29:38;;;;;;;;;;;;;;;;;;21190784;28;20276;-71
2022/08/11 04:39:40;;;;;;;;;;;;;;;;;;21178758;28;19930;-57
2022/08/11 05:10:30;;;;;;;;;;;;;;;;;;21161972;28;19930;-75
2022/08/11 06:02:37;;;;;;;;;;;;;;;;;;21176066;28;20286;-76
2022/08/11 06:12:59;;;;;;;;;;;;;;;;;;21174842;28;20011;-57
2022/08/11 06:23:14;;;;;;;;;;;;;;;;;;21176048;28;20379;-57
2022/08/11 06:33:20;;;;;;;;;;;;;;;;;;21182307;28;20422;-76
2022/08/11 06:43:22;;;;;;;;;;;;;;;;;;21171886;28;19924;-60
2022/08/11 06:53:28;;;;;;;;;;;;;;;;;;21172156;28;19923;-75
2022/08/11 07:03:32;;;;;;;;;;;;;;;;;;21169783;28;20322;-56
2022/08/11 07:34:19;;;;;;;;;;;;;;;;;;21175567;28;20261;-63
2022/08/11 07:44:24;;;;;;;;;;;;;;;;;;21166968;28;19924;-63
2022/08/11 07:54:26;;;;;;;;;;;;;;;;;;21166692;28;20303;-58
2022/08/11 08:25:17;;;;;;;;;;;;;;;;;;21166892;28;20323;-71
2022/08/11 08:35:20;;;;;;;;;;;;;;;;;;21165473;28;20348;-75
2022/08/11 08:45:23;;;;;;;;;;;;;;;;;;21163522;28;19928;-72
2022/08/11 08:55:26;;;;;;;;;;;;;;;;;;21163052;28;19955;-74
2022/08/11 09:05:28;;;;;;;;;;;;;;;;;;21162237;28;19924;-75
2022/08/11 09:15:31;;;;;;;;;;;;;;;;;;21162241;28;19924;-68
2022/08/11 09:35:56;;;;;;;;;;;;;;;;;;21178478;28;19934;-62
2022/08/11 09:45:59;;;;;;;;;;;;;;;;;;21176225;28;19951;-66
2022/08/11 09:58:12;;;;;;;;;;;;;;;;;;21175112;28;20057;-66
2022/08/11 10:16:50;;;;;;;;;;;;;;;;;;21172809;28;19924;-74
2022/08/11 10:27:11;;;;;;;;;;;;;;;;;;21173846;28;19977;-57
2022/08/11 10:37:21;;;;;;;;;;;;;;;;;;21172020;28;19931;-71
2022/08/11 10:47:43;;;;;;;;;;;;;;;;;;21167242;28;19968;-71
2022/08/11 11:08:51;;;;;;;;;;;;;;;;;;21152178;27;19974;-78
2022/08/11 11:19:19;;;;;;;;;;;;;;;;;;21151895;28;19932;-56
2022/08/11 11:29:40;;;;;;;;;;;;;;;;;;21149925;28;19924;-66
2022/08/11 11:40:02;;;;;;;;;;;;;;;;;;21149257;28;19932;-70
2022/08/11 11:50:23;;;;;;;;;;;;;;;;;;21149757;28;20275;-73
2022/08/11 12:21:24;;;;;;;;;;;;;;;;;;21089406;28;19924;-60
2022/08/11 12:31:28;;;;;;;;;;;;;;;;;;21090877;28;19993;-71
2022/08/11 12:51:57;;;;;;;;;;;;;;;;;;21089480;28;19928;-66
2022/08/11 13:22:44;;;;;;;;;;;;;;;;;;21084804;28;20333;-70
2022/08/11 13:32:46;;;;;;;;;;;;;;;;;;21087602;28;19931;-71
2022/08/11 13:42:48;;;;;;;;;;;;;;;;;;21085022;28;20296;-65
2022/08/11 13:52:51;;;;;;;;;;;;;;;;;;21085489;28;19924;-64
2022/08/11 14:02:53;;;;;;;;;;;;;;;;;;21083692;28;20295;-72
2022/08/11 14:23:17;;;;;;;;;;;;;;;;;;21080772;28;19924;-71
2022/08/11 14:33:19;;;;;;;;;;;;;;;;;;21082381;28;20377;-73
2022/08/11 14:53:42;;;;;;;;;;;;;;;;;;21081338;28;19928;-72
2022/08/11 15:03:44;;;;;;;;;;;;;;;;;;21079673;28;19924;-57
2022/08/11 15:13:46;;;;;;;;;;;;;;;;;;21079290;28;19924;-57
2022/08/11 15:54:56;;;;;;;;;;;;;;;;;;21091619;28;20050;-71
2022/08/11 16:04:58;;;;;;;;;;;;;;;;;;21091950;28;19924;-71
2022/08/11 16:25:22;;;;;;;;;;;;;;;;;;21090697;28;19924;-61
2022/08/11 16:56:04;;;;;;;;;;;;;;;;;;21088616;28;20359;-71
2022/08/11 17:16:25;;;;;;;;;;;;;;;;;;21085987;28;20011;-68
2022/08/11 17:26:52;;;;;;;;;;;;;;;;;;21084942;28;20269;-72
2022/08/11 17:36:50;;;;;;;;;;;;;;;;;;21084832;28;20015;-73
